sensor_id;sensor_type;location;lat;lon;timestamp;P1;durP1;ratioP1;P2;durP2;ratioP2
22924;SDS011;11628;51.072;3.712;2022-09-09T00:18:28;4.38;;;1.20;;
22924;SDS011;11628;51.072;3.712;2022-09-09T00:21:14;7.63;;;1.90;;
22924;SDS011;11628;51.072;3.712;2022-09-09T00:23:58;7.55;;;2.05;;
22924;SDS011;11628;51.072;3.712;2022-09-09T00:26:35;6.82;;;1.23;;
22924;SDS011;11628;51.072;3.712;2022-09-09T00:31:33;5.03;;;1.48;;
22924;SDS011;11628;51.072;3.712;2022-09-09T00:34:03;4.68;;;1.40;;
22924;SDS011;11628;51.072;3.712;2022-09-09T00:36:37;7.85;;;1.70;;
22924;SDS011;11628;51.072;3.712;2022-09-09T00:39:04;5.28;;;1.40;;
22924;SDS011;11628;51.072;3.712;2022-09-09T00:55:20;2.42;;;1.08;;
22924;SDS011;11628;51.072;3.712;2022-09-09T00:58:06;3.42;;;1.10;;
22924;SDS011;11628;51.072;3.712;2022-09-09T01:03:14;3.67;;;1.00;;
22924;SDS011;11628;51.072;3.712;2022-09-09T01:08:34;5.13;;;1.40;;
22924;SDS011;11628;51.072;3.712;2022-09-09T01:10:56;3.33;;;1.30;;
22924;SDS011;11628;51.072;3.712;2022-09-09T01:13:28;5.07;;;1.50;;
22924;SDS011;11628;51.072;3.712;2022-09-09T01:15:56;2.75;;;1.10;;
22924;SDS011;11628;51.072;3.712;2022-09-09T01:18:26;7.63;;;1.55;;
22924;SDS011;11628;51.072;3.712;2022-09-09T01:28:55;3.30;;;1.30;;
22924;SDS011;11628;51.072;3.712;2022-09-09T01:31:43;3.55;;;1.20;;
22924;SDS011;11628;51.072;3.712;2022-09-09T01:34:16;3.20;;;1.42;;
22924;SDS011;11628;51.072;3.712;2022-09-09T01:36:43;1.75;;;0.90;;
22924;SDS011;11628;51.072;3.712;2022-09-09T01:39:13;3.80;;;1.08;;
22924;SDS011;11628;51.072;3.712;2022-09-09T01:41:39;4.35;;;0.88;;
22924;SDS011;11628;51.072;3.712;2022-09-09T01:44:05;4.45;;;1.20;;
22924;SDS011;11628;51.072;3.712;2022-09-09T01:46:33;6.47;;;1.40;;
22924;SDS011;11628;51.072;3.712;2022-09-09T01:48:58;6.00;;;1.33;;
22924;SDS011;11628;51.072;3.712;2022-09-09T01:51:27;5.05;;;1.48;;
22924;SDS011;11628;51.072;3.712;2022-09-09T01:53:52;5.00;;;1.20;;
22924;SDS011;11628;51.072;3.712;2022-09-09T01:56:35;5.38;;;1.08;;
22924;SDS011;11628;51.072;3.712;2022-09-09T02:04:41;4.50;;;1.05;;
22924;SDS011;11628;51.072;3.712;2022-09-09T02:09:50;5.63;;;1.27;;
22924;SDS011;11628;51.072;3.712;2022-09-09T02:12:23;3.55;;;1.05;;
22924;SDS011;11628;51.072;3.712;2022-09-09T02:14:53;8.93;;;1.45;;
22924;SDS011;11628;51.072;3.712;2022-09-09T02:17:30;9.38;;;1.45;;
22924;SDS011;11628;51.072;3.712;2022-09-09T02:20:08;6.07;;;1.30;;
22924;SDS011;11628;51.072;3.712;2022-09-09T02:22:38;5.80;;;1.83;;
22924;SDS011;11628;51.072;3.712;2022-09-09T02:25:08;5.00;;;1.67;;
22924;SDS011;11628;51.072;3.712;2022-09-09T02:27:39;7.07;;;1.27;;
22924;SDS011;11628;51.072;3.712;2022-09-09T02:30:08;4.45;;;1.38;;
22924;SDS011;11628;51.072;3.712;2022-09-09T02:32:35;9.02;;;2.42;;
22924;SDS011;11628;51.072;3.712;2022-09-09T02:35:05;6.40;;;1.50;;
22924;SDS011;11628;51.072;3.712;2022-09-09T02:37:38;6.95;;;1.60;;
22924;SDS011;11628;51.072;3.712;2022-09-09T02:40:05;5.50;;;1.65;;
22924;SDS011;11628;51.072;3.712;2022-09-09T02:42:40;5.13;;;1.35;;
22924;SDS011;11628;51.072;3.712;2022-09-09T02:47:34;8.18;;;1.80;;
22924;SDS011;11628;51.072;3.712;2022-09-09T02:58:19;9.57;;;2.17;;
22924;SDS011;11628;51.072;3.712;2022-09-09T03:00:46;6.93;;;1.35;;
22924;SDS011;11628;51.072;3.712;2022-09-09T03:03:13;8.18;;;1.58;;
22924;SDS011;11628;51.072;3.712;2022-09-09T03:05:41;8.52;;;1.83;;
22924;SDS011;11628;51.072;3.712;2022-09-09T03:08:07;10.68;;;1.88;;
22924;SDS011;11628;51.072;3.712;2022-09-09T03:10:33;7.10;;;1.75;;
22924;SDS011;11628;51.072;3.712;2022-09-09T03:12:59;6.07;;;2.13;;
22924;SDS011;11628;51.072;3.712;2022-09-09T03:15:25;10.35;;;2.35;;
22924;SDS011;11628;51.072;3.712;2022-09-09T03:17:55;7.45;;;1.52;;
22924;SDS011;11628;51.072;3.712;2022-09-09T03:20:22;7.93;;;1.48;;
22924;SDS011;11628;51.072;3.712;2022-09-09T03:22:52;7.53;;;1.58;;
22924;SDS011;11628;51.072;3.712;2022-09-09T03:25:19;7.15;;;1.67;;
22924;SDS011;11628;51.072;3.712;2022-09-09T03:27:45;8.50;;;2.00;;
22924;SDS011;11628;51.072;3.712;2022-09-09T03:30:11;11.20;;;2.28;;
22924;SDS011;11628;51.072;3.712;2022-09-09T03:32:37;9.48;;;1.80;;
22924;SDS011;11628;51.072;3.712;2022-09-09T03:35:03;9.25;;;2.03;;
22924;SDS011;11628;51.072;3.712;2022-09-09T03:37:29;10.40;;;2.50;;
22924;SDS011;11628;51.072;3.712;2022-09-09T03:39:55;7.60;;;1.77;;
22924;SDS011;11628;51.072;3.712;2022-09-09T03:42:20;11.00;;;1.90;;
22924;SDS011;11628;51.072;3.712;2022-09-09T03:44:47;13.05;;;2.42;;
22924;SDS011;11628;51.072;3.712;2022-09-09T03:47:15;9.93;;;2.08;;
22924;SDS011;11628;51.072;3.712;2022-09-09T03:49:44;9.88;;;1.70;;
22924;SDS011;11628;51.072;3.712;2022-09-09T03:52:10;9.65;;;2.03;;
22924;SDS011;11628;51.072;3.712;2022-09-09T03:54:36;9.38;;;1.90;;
22924;SDS011;11628;51.072;3.712;2022-09-09T03:57:02;12.63;;;2.42;;
22924;SDS011;11628;51.072;3.712;2022-09-09T03:59:29;7.30;;;1.60;;
22924;SDS011;11628;51.072;3.712;2022-09-09T04:01:55;10.48;;;1.92;;
22924;SDS011;11628;51.072;3.712;2022-09-09T04:04:22;9.30;;;1.58;;
22924;SDS011;11628;51.072;3.712;2022-09-09T04:06:48;9.73;;;2.03;;
22924;SDS011;11628;51.072;3.712;2022-09-09T04:09:14;13.68;;;2.10;;
22924;SDS011;11628;51.072;3.712;2022-09-09T04:11:40;8.88;;;1.95;;
22924;SDS011;11628;51.072;3.712;2022-09-09T04:14:05;10.77;;;2.10;;
22924;SDS011;11628;51.072;3.712;2022-09-09T04:16:32;8.88;;;1.90;;
22924;SDS011;11628;51.072;3.712;2022-09-09T04:18:58;9.45;;;2.53;;
22924;SDS011;11628;51.072;3.712;2022-09-09T04:21:25;11.05;;;2.38;;
22924;SDS011;11628;51.072;3.712;2022-09-09T04:23:51;11.48;;;1.92;;
22924;SDS011;11628;51.072;3.712;2022-09-09T04:26:17;13.88;;;2.63;;
22924;SDS011;11628;51.072;3.712;2022-09-09T04:28:43;7.43;;;2.33;;
22924;SDS011;11628;51.072;3.712;2022-09-09T04:31:17;10.32;;;1.83;;
22924;SDS011;11628;51.072;3.712;2022-09-09T04:33:47;9.13;;;2.45;;
22924;SDS011;11628;51.072;3.712;2022-09-09T04:36:14;10.68;;;2.20;;
22924;SDS011;11628;51.072;3.712;2022-09-09T04:38:40;7.13;;;2.20;;
22924;SDS011;11628;51.072;3.712;2022-09-09T04:41:06;12.50;;;2.10;;
22924;SDS011;11628;51.072;3.712;2022-09-09T04:43:32;12.73;;;2.08;;
22924;SDS011;11628;51.072;3.712;2022-09-09T04:45:59;7.35;;;2.20;;
22924;SDS011;11628;51.072;3.712;2022-09-09T04:48:24;10.60;;;2.63;;
22924;SDS011;11628;51.072;3.712;2022-09-09T04:51:01;11.35;;;2.60;;
22924;SDS011;11628;51.072;3.712;2022-09-09T04:53:29;13.25;;;2.45;;
22924;SDS011;11628;51.072;3.712;2022-09-09T04:56:09;12.85;;;2.95;;
22924;SDS011;11628;51.072;3.712;2022-09-09T04:58:37;11.20;;;2.53;;
22924;SDS011;11628;51.072;3.712;2022-09-09T05:01:08;13.10;;;2.92;;
22924;SDS011;11628;51.072;3.712;2022-09-09T05:03:35;9.32;;;2.50;;
22924;SDS011;11628;51.072;3.712;2022-09-09T05:06:03;11.05;;;2.45;;
22924;SDS011;11628;51.072;3.712;2022-09-09T05:08:30;13.55;;;2.47;;
22924;SDS011;11628;51.072;3.712;2022-09-09T05:10:56;8.13;;;2.42;;
22924;SDS011;11628;51.072;3.712;2022-09-09T05:13:23;9.77;;;2.70;;
22924;SDS011;11628;51.072;3.712;2022-09-09T05:15:52;12.60;;;2.50;;
22924;SDS011;11628;51.072;3.712;2022-09-09T05:18:18;7.95;;;3.00;;
22924;SDS011;11628;51.072;3.712;2022-09-09T05:20:44;8.23;;;3.17;;
22924;SDS011;11628;51.072;3.712;2022-09-09T05:23:10;11.25;;;3.42;;
22924;SDS011;11628;51.072;3.712;2022-09-09T05:25:38;15.27;;;3.88;;
22924;SDS011;11628;51.072;3.712;2022-09-09T05:28:05;10.77;;;3.50;;
22924;SDS011;11628;51.072;3.712;2022-09-09T05:30:32;11.63;;;4.13;;
22924;SDS011;11628;51.072;3.712;2022-09-09T05:32:58;12.43;;;3.78;;
22924;SDS011;11628;51.072;3.712;2022-09-09T05:35:27;12.52;;;3.88;;
22924;SDS011;11628;51.072;3.712;2022-09-09T05:37:53;11.23;;;3.83;;
22924;SDS011;11628;51.072;3.712;2022-09-09T05:40:19;13.48;;;4.18;;
22924;SDS011;11628;51.072;3.712;2022-09-09T05:42:46;16.88;;;4.55;;
22924;SDS011;11628;51.072;3.712;2022-09-09T05:45:12;16.45;;;4.68;;
22924;SDS011;11628;51.072;3.712;2022-09-09T05:47:37;12.73;;;3.58;;
22924;SDS011;11628;51.072;3.712;2022-09-09T05:50:03;18.35;;;5.05;;
22924;SDS011;11628;51.072;3.712;2022-09-09T05:52:29;15.85;;;4.28;;
22924;SDS011;11628;51.072;3.712;2022-09-09T05:54:55;11.82;;;4.78;;
22924;SDS011;11628;51.072;3.712;2022-09-09T05:57:22;11.80;;;4.07;;
22924;SDS011;11628;51.072;3.712;2022-09-09T05:59:47;16.25;;;4.68;;
22924;SDS011;11628;51.072;3.712;2022-09-09T06:02:14;11.20;;;3.92;;
22924;SDS011;11628;51.072;3.712;2022-09-09T06:04:39;12.90;;;4.10;;
22924;SDS011;11628;51.072;3.712;2022-09-09T06:07:05;12.77;;;4.60;;
22924;SDS011;11628;51.072;3.712;2022-09-09T06:09:31;18.25;;;4.72;;
22924;SDS011;11628;51.072;3.712;2022-09-09T06:11:57;11.02;;;4.28;;
22924;SDS011;11628;51.072;3.712;2022-09-09T06:14:23;17.50;;;4.68;;
22924;SDS011;11628;51.072;3.712;2022-09-09T06:16:50;16.75;;;5.38;;
22924;SDS011;11628;51.072;3.712;2022-09-09T06:19:16;15.65;;;4.95;;
22924;SDS011;11628;51.072;3.712;2022-09-09T06:21:43;15.75;;;6.10;;
22924;SDS011;11628;51.072;3.712;2022-09-09T06:24:09;12.82;;;5.20;;
22924;SDS011;11628;51.072;3.712;2022-09-09T06:26:38;21.70;;;6.47;;
22924;SDS011;11628;51.072;3.712;2022-09-09T06:29:06;15.15;;;5.93;;
22924;SDS011;11628;51.072;3.712;2022-09-09T06:31:33;14.05;;;4.55;;
22924;SDS011;11628;51.072;3.712;2022-09-09T06:34:01;15.07;;;5.20;;
22924;SDS011;11628;51.072;3.712;2022-09-09T06:36:30;16.02;;;5.45;;
22924;SDS011;11628;51.072;3.712;2022-09-09T06:38:58;11.85;;;5.22;;
22924;SDS011;11628;51.072;3.712;2022-09-09T06:41:25;18.95;;;5.57;;
22924;SDS011;11628;51.072;3.712;2022-09-09T06:43:53;14.88;;;5.30;;
22924;SDS011;11628;51.072;3.712;2022-09-09T06:46:21;17.40;;;5.95;;
22924;SDS011;11628;51.072;3.712;2022-09-09T06:48:48;20.35;;;6.15;;
22924;SDS011;11628;51.072;3.712;2022-09-09T06:53:42;15.70;;;5.57;;
22924;SDS011;11628;51.072;3.712;2022-09-09T06:58:44;15.27;;;5.05;;
22924;SDS011;11628;51.072;3.712;2022-09-09T07:01:11;16.63;;;5.72;;
22924;SDS011;11628;51.072;3.712;2022-09-09T07:03:40;18.38;;;5.88;;
22924;SDS011;11628;51.072;3.712;2022-09-09T07:06:07;14.02;;;4.28;;
22924;SDS011;11628;51.072;3.712;2022-09-09T07:08:39;13.25;;;4.82;;
22924;SDS011;11628;51.072;3.712;2022-09-09T07:11:06;13.77;;;4.85;;
22924;SDS011;11628;51.072;3.712;2022-09-09T07:13:33;14.57;;;4.70;;
22924;SDS011;11628;51.072;3.712;2022-09-09T07:16:07;13.73;;;3.90;;
22924;SDS011;11628;51.072;3.712;2022-09-09T07:18:34;11.93;;;3.50;;
22924;SDS011;11628;51.072;3.712;2022-09-09T07:21:01;11.43;;;3.78;;
22924;SDS011;11628;51.072;3.712;2022-09-09T07:23:28;11.35;;;3.78;;
22924;SDS011;11628;51.072;3.712;2022-09-09T07:25:55;11.63;;;3.60;;
22924;SDS011;11628;51.072;3.712;2022-09-09T07:28:24;10.90;;;3.45;;
22924;SDS011;11628;51.072;3.712;2022-09-09T07:30:57;9.63;;;3.38;;
22924;SDS011;11628;51.072;3.712;2022-09-09T07:33:26;12.77;;;3.92;;
22924;SDS011;11628;51.072;3.712;2022-09-09T07:35:52;9.90;;;4.32;;
22924;SDS011;11628;51.072;3.712;2022-09-09T07:38:19;14.55;;;4.30;;
22924;SDS011;11628;51.072;3.712;2022-09-09T07:40:45;10.45;;;3.42;;
22924;SDS011;11628;51.072;3.712;2022-09-09T07:43:11;8.45;;;3.25;;
22924;SDS011;11628;51.072;3.712;2022-09-09T07:45:37;12.10;;;3.38;;
22924;SDS011;11628;51.072;3.712;2022-09-09T07:48:05;9.05;;;3.10;;
22924;SDS011;11628;51.072;3.712;2022-09-09T07:50:31;7.07;;;2.78;;
22924;SDS011;11628;51.072;3.712;2022-09-09T07:52:56;13.45;;;4.07;;
22924;SDS011;11628;51.072;3.712;2022-09-09T07:55:24;10.57;;;3.40;;
22924;SDS011;11628;51.072;3.712;2022-09-09T07:57:50;13.25;;;3.33;;
22924;SDS011;11628;51.072;3.712;2022-09-09T08:00:18;9.45;;;3.30;;
22924;SDS011;11628;51.072;3.712;2022-09-09T08:02:44;10.48;;;3.60;;
22924;SDS011;11628;51.072;3.712;2022-09-09T08:05:11;10.32;;;2.63;;
22924;SDS011;11628;51.072;3.712;2022-09-09T08:07:37;8.70;;;2.92;;
22924;SDS011;11628;51.072;3.712;2022-09-09T08:10:04;15.20;;;3.40;;
22924;SDS011;11628;51.072;3.712;2022-09-09T08:12:31;12.73;;;3.33;;
22924;SDS011;11628;51.072;3.712;2022-09-09T08:14:57;10.75;;;3.50;;
22924;SDS011;11628;51.072;3.712;2022-09-09T08:17:23;9.73;;;2.63;;
22924;SDS011;11628;51.072;3.712;2022-09-09T08:19:49;7.68;;;3.30;;
22924;SDS011;11628;51.072;3.712;2022-09-09T08:22:14;7.95;;;2.97;;
22924;SDS011;11628;51.072;3.712;2022-09-09T08:24:40;12.75;;;3.22;;
22924;SDS011;11628;51.072;3.712;2022-09-09T08:27:06;7.70;;;3.50;;
22924;SDS011;11628;51.072;3.712;2022-09-09T08:29:31;12.00;;;3.35;;
22924;SDS011;11628;51.072;3.712;2022-09-09T08:31:57;9.70;;;2.92;;
22924;SDS011;11628;51.072;3.712;2022-09-09T08:34:24;7.30;;;3.10;;
22924;SDS011;11628;51.072;3.712;2022-09-09T08:36:52;13.82;;;3.22;;
22924;SDS011;11628;51.072;3.712;2022-09-09T08:39:19;8.85;;;2.28;;
22924;SDS011;11628;51.072;3.712;2022-09-09T08:50:28;8.70;;;2.45;;
22924;SDS011;11628;51.072;3.712;2022-09-09T08:55:46;8.27;;;2.45;;
22924;SDS011;11628;51.072;3.712;2022-09-09T09:08:57;8.05;;;2.42;;
22924;SDS011;11628;51.072;3.712;2022-09-09T09:11:53;9.82;;;2.13;;
22924;SDS011;11628;51.072;3.712;2022-09-09T09:14:26;8.07;;;2.55;;
22924;SDS011;11628;51.072;3.712;2022-09-09T09:19:25;10.85;;;3.15;;
22924;SDS011;11628;51.072;3.712;2022-09-09T09:22:02;8.18;;;2.88;;
22924;SDS011;11628;51.072;3.712;2022-09-09T09:30:00;5.85;;;2.00;;
22924;SDS011;11628;51.072;3.712;2022-09-09T09:33:08;9.27;;;2.08;;
22924;SDS011;11628;51.072;3.712;2022-09-09T09:35:38;7.65;;;2.58;;
22924;SDS011;11628;51.072;3.712;2022-09-09T09:38:21;8.95;;;2.10;;
22924;SDS011;11628;51.072;3.712;2022-09-09T09:40:53;9.18;;;1.83;;
22924;SDS011;11628;51.072;3.712;2022-09-09T09:43:24;7.45;;;1.95;;
22924;SDS011;11628;51.072;3.712;2022-09-09T09:45:51;8.73;;;2.13;;
22924;SDS011;11628;51.072;3.712;2022-09-09T09:48:17;8.88;;;2.28;;
22924;SDS011;11628;51.072;3.712;2022-09-09T09:51:01;5.78;;;1.67;;
22924;SDS011;11628;51.072;3.712;2022-09-09T09:53:34;6.30;;;2.40;;
22924;SDS011;11628;51.072;3.712;2022-09-09T09:56:02;6.72;;;1.90;;
22924;SDS011;11628;51.072;3.712;2022-09-09T10:01:03;7.55;;;1.77;;
22924;SDS011;11628;51.072;3.712;2022-09-09T10:03:30;6.53;;;1.65;;
22924;SDS011;11628;51.072;3.712;2022-09-09T10:05:58;5.30;;;1.45;;
22924;SDS011;11628;51.072;3.712;2022-09-09T10:08:24;6.72;;;1.83;;
22924;SDS011;11628;51.072;3.712;2022-09-09T10:33:07;6.95;;;1.40;;
22924;SDS011;11628;51.072;3.712;2022-09-09T10:38:34;3.42;;;1.05;;
22924;SDS011;11628;51.072;3.712;2022-09-09T10:55:35;3.47;;;1.08;;
22924;SDS011;11628;51.072;3.712;2022-09-09T10:58:17;4.95;;;1.27;;
22924;SDS011;11628;51.072;3.712;2022-09-09T11:00:54;5.47;;;1.63;;
22924;SDS011;11628;51.072;3.712;2022-09-09T11:03:29;6.38;;;1.38;;
22924;SDS011;11628;51.072;3.712;2022-09-09T11:06:02;5.40;;;1.52;;
22924;SDS011;11628;51.072;3.712;2022-09-09T11:08:30;3.83;;;1.17;;
22924;SDS011;11628;51.072;3.712;2022-09-09T11:16:20;3.25;;;1.10;;
22924;SDS011;11628;51.072;3.712;2022-09-09T11:18:57;4.22;;;1.10;;
22924;SDS011;11628;51.072;3.712;2022-09-09T11:21:34;3.83;;;1.10;;
22924;SDS011;11628;51.072;3.712;2022-09-09T11:24:14;5.55;;;1.17;;
22924;SDS011;11628;51.072;3.712;2022-09-09T11:26:44;3.30;;;1.25;;
22924;SDS011;11628;51.072;3.712;2022-09-09T11:34:37;4.25;;;1.10;;
22924;SDS011;11628;51.072;3.712;2022-09-09T11:37:29;4.35;;;1.20;;
22924;SDS011;11628;51.072;3.712;2022-09-09T11:42:26;5.40;;;1.30;;
22924;SDS011;11628;51.072;3.712;2022-09-09T11:44:52;2.10;;;0.80;;
22924;SDS011;11628;51.072;3.712;2022-09-09T11:47:26;3.58;;;1.23;;
22924;SDS011;11628;51.072;3.712;2022-09-09T11:50:09;8.38;;;1.20;;
22924;SDS011;11628;51.072;3.712;2022-09-09T11:52:47;19.25;;;1.65;;
22924;SDS011;11628;51.072;3.712;2022-09-09T12:00:38;6.07;;;1.30;;
22924;SDS011;11628;51.072;3.712;2022-09-09T12:08:43;2.35;;;1.00;;
22924;SDS011;11628;51.072;3.712;2022-09-09T12:11:11;3.08;;;1.00;;
22924;SDS011;11628;51.072;3.712;2022-09-09T12:13:37;7.47;;;1.70;;
22924;SDS011;11628;51.072;3.712;2022-09-09T12:16:02;6.40;;;0.98;;
22924;SDS011;11628;51.072;3.712;2022-09-09T12:18:34;3.20;;;1.15;;
22924;SDS011;11628;51.072;3.712;2022-09-09T12:21:12;5.47;;;1.10;;
22924;SDS011;11628;51.072;3.712;2022-09-09T12:24:00;4.72;;;1.00;;
22924;SDS011;11628;51.072;3.712;2022-09-09T12:26:35;2.55;;;0.90;;
22924;SDS011;11628;51.072;3.712;2022-09-09T12:29:14;2.55;;;1.02;;
22924;SDS011;11628;51.072;3.712;2022-09-09T12:34:38;2.65;;;0.90;;
22924;SDS011;11628;51.072;3.712;2022-09-09T12:39:57;5.18;;;1.27;;
22924;SDS011;11628;51.072;3.712;2022-09-09T12:42:24;6.75;;;1.40;;
22924;SDS011;11628;51.072;3.712;2022-09-09T12:44:51;7.32;;;1.73;;
22924;SDS011;11628;51.072;3.712;2022-09-09T12:47:37;4.10;;;1.30;;
22924;SDS011;11628;51.072;3.712;2022-09-09T12:50:22;2.90;;;0.90;;
22924;SDS011;11628;51.072;3.712;2022-09-09T12:52:51;4.57;;;1.23;;
22924;SDS011;11628;51.072;3.712;2022-09-09T12:55:30;4.25;;;1.02;;
22924;SDS011;11628;51.072;3.712;2022-09-09T12:57:59;2.58;;;1.08;;
22924;SDS011;11628;51.072;3.712;2022-09-09T13:00:30;2.55;;;1.00;;
22924;SDS011;11628;51.072;3.712;2022-09-09T13:03:00;3.53;;;1.52;;
22924;SDS011;11628;51.072;3.712;2022-09-09T13:05:33;4.03;;;1.23;;
22924;SDS011;11628;51.072;3.712;2022-09-09T13:08:01;6.25;;;1.40;;
22924;SDS011;11628;51.072;3.712;2022-09-09T13:10:33;5.80;;;0.95;;
22924;SDS011;11628;51.072;3.712;2022-09-09T13:13:04;7.90;;;1.20;;
22924;SDS011;11628;51.072;3.712;2022-09-09T13:15:38;3.95;;;1.40;;
22924;SDS011;11628;51.072;3.712;2022-09-09T13:18:06;8.25;;;1.50;;
22924;SDS011;11628;51.072;3.712;2022-09-09T13:20:37;7.28;;;1.50;;
22924;SDS011;11628;51.072;3.712;2022-09-09T13:23:03;3.17;;;1.63;;
22924;SDS011;11628;51.072;3.712;2022-09-09T13:25:28;4.20;;;1.15;;
22924;SDS011;11628;51.072;3.712;2022-09-09T13:27:56;6.90;;;1.40;;
22924;SDS011;11628;51.072;3.712;2022-09-09T13:35:49;3.85;;;1.00;;
22924;SDS011;11628;51.072;3.712;2022-09-09T13:38:18;3.63;;;0.82;;
22924;SDS011;11628;51.072;3.712;2022-09-09T13:43:21;8.32;;;1.75;;
22924;SDS011;11628;51.072;3.712;2022-09-09T13:45:55;3.60;;;1.00;;
22924;SDS011;11628;51.072;3.712;2022-09-09T13:48:23;3.10;;;1.25;;
22924;SDS011;11628;51.072;3.712;2022-09-09T13:50:56;3.85;;;2.40;;
22924;SDS011;11628;51.072;3.712;2022-09-09T13:53:23;9.68;;;7.20;;
22924;SDS011;11628;51.072;3.712;2022-09-09T13:55:49;8.13;;;5.03;;
22924;SDS011;11628;51.072;3.712;2022-09-09T13:58:17;5.03;;;1.75;;
22924;SDS011;11628;51.072;3.712;2022-09-09T14:00:44;2.15;;;0.98;;
22924;SDS011;11628;51.072;3.712;2022-09-09T14:03:10;2.33;;;1.10;;
22924;SDS011;11628;51.072;3.712;2022-09-09T14:05:36;5.43;;;1.58;;
22924;SDS011;11628;51.072;3.712;2022-09-09T14:08:05;5.07;;;1.15;;
22924;SDS011;11628;51.072;3.712;2022-09-09T14:10:32;1.58;;;0.90;;
22924;SDS011;11628;51.072;3.712;2022-09-09T14:13:00;3.53;;;1.20;;
22924;SDS011;11628;51.072;3.712;2022-09-09T14:15:26;4.70;;;1.00;;
22924;SDS011;11628;51.072;3.712;2022-09-09T14:17:52;2.70;;;1.10;;
22924;SDS011;11628;51.072;3.712;2022-09-09T14:20:18;5.25;;;1.15;;
22924;SDS011;11628;51.072;3.712;2022-09-09T14:22:45;5.13;;;1.40;;
22924;SDS011;11628;51.072;3.712;2022-09-09T14:25:11;1.55;;;0.85;;
22924;SDS011;11628;51.072;3.712;2022-09-09T14:27:40;4.75;;;1.48;;
22924;SDS011;11628;51.072;3.712;2022-09-09T14:30:07;2.90;;;1.50;;
22924;SDS011;11628;51.072;3.712;2022-09-09T14:32:34;4.93;;;1.20;;
22924;SDS011;11628;51.072;3.712;2022-09-09T14:35:00;4.50;;;1.30;;
22924;SDS011;11628;51.072;3.712;2022-09-09T14:37:26;2.78;;;0.80;;
22924;SDS011;11628;51.072;3.712;2022-09-09T14:39:52;3.47;;;1.40;;
22924;SDS011;11628;51.072;3.712;2022-09-09T14:42:19;4.57;;;2.60;;
22924;SDS011;11628;51.072;3.712;2022-09-09T14:44:47;8.60;;;5.18;;
22924;SDS011;11628;51.072;3.712;2022-09-09T14:47:12;3.25;;;0.90;;
22924;SDS011;11628;51.072;3.712;2022-09-09T14:49:38;4.88;;;1.27;;
22924;SDS011;11628;51.072;3.712;2022-09-09T14:52:04;1.65;;;0.75;;
22924;SDS011;11628;51.072;3.712;2022-09-09T14:54:31;3.50;;;1.00;;
22924;SDS011;11628;51.072;3.712;2022-09-09T14:56:57;3.00;;;0.80;;
22924;SDS011;11628;51.072;3.712;2022-09-09T14:59:23;3.40;;;1.10;;
22924;SDS011;11628;51.072;3.712;2022-09-09T15:01:49;3.47;;;1.20;;
22924;SDS011;11628;51.072;3.712;2022-09-09T15:04:15;5.78;;;1.48;;
22924;SDS011;11628;51.072;3.712;2022-09-09T15:06:42;4.82;;;1.65;;
22924;SDS011;11628;51.072;3.712;2022-09-09T15:09:09;12.20;;;9.98;;
22924;SDS011;11628;51.072;3.712;2022-09-09T15:11:35;4.72;;;1.38;;
22924;SDS011;11628;51.072;3.712;2022-09-09T15:14:02;7.95;;;2.08;;
22924;SDS011;11628;51.072;3.712;2022-09-09T15:16:29;5.75;;;2.33;;
22924;SDS011;11628;51.072;3.712;2022-09-09T15:18:55;7.45;;;3.97;;
22924;SDS011;11628;51.072;3.712;2022-09-09T15:21:23;4.68;;;1.65;;
22924;SDS011;11628;51.072;3.712;2022-09-09T15:23:52;4.95;;;2.13;;
22924;SDS011;11628;51.072;3.712;2022-09-09T15:26:18;6.63;;;3.50;;
22924;SDS011;11628;51.072;3.712;2022-09-09T15:28:44;3.10;;;1.45;;
22924;SDS011;11628;51.072;3.712;2022-09-09T15:31:19;5.97;;;2.00;;
22924;SDS011;11628;51.072;3.712;2022-09-09T15:33:52;5.88;;;2.05;;
22924;SDS011;11628;51.072;3.712;2022-09-09T15:36:27;2.28;;;1.55;;
22924;SDS011;11628;51.072;3.712;2022-09-09T15:38:54;5.18;;;2.15;;
22924;SDS011;11628;51.072;3.712;2022-09-09T15:41:22;5.70;;;2.03;;
22924;SDS011;11628;51.072;3.712;2022-09-09T15:43:48;2.55;;;2.30;;
22924;SDS011;11628;51.072;3.712;2022-09-09T15:46:22;4.95;;;2.20;;
22924;SDS011;11628;51.072;3.712;2022-09-09T15:48:49;6.22;;;2.60;;
22924;SDS011;11628;51.072;3.712;2022-09-09T15:51:16;4.75;;;2.40;;
22924;SDS011;11628;51.072;3.712;2022-09-09T15:53:42;5.63;;;2.08;;
22924;SDS011;11628;51.072;3.712;2022-09-09T15:56:08;9.30;;;4.82;;
22924;SDS011;11628;51.072;3.712;2022-09-09T15:58:34;9.07;;;5.88;;
22924;SDS011;11628;51.072;3.712;2022-09-09T16:01:06;4.93;;;2.25;;
22924;SDS011;11628;51.072;3.712;2022-09-09T16:03:34;5.95;;;2.95;;
22924;SDS011;11628;51.072;3.712;2022-09-09T16:06:01;4.93;;;2.78;;
22924;SDS011;11628;51.072;3.712;2022-09-09T16:08:35;13.73;;;9.48;;
22924;SDS011;11628;51.072;3.712;2022-09-09T16:11:13;18.58;;;14.07;;
22924;SDS011;11628;51.072;3.712;2022-09-09T16:13:42;9.10;;;5.28;;
22924;SDS011;11628;51.072;3.712;2022-09-09T16:16:09;6.05;;;2.60;;
22924;SDS011;11628;51.072;3.712;2022-09-09T16:18:36;5.93;;;3.67;;
22924;SDS011;11628;51.072;3.712;2022-09-09T16:21:08;6.85;;;2.13;;
22924;SDS011;11628;51.072;3.712;2022-09-09T16:23:39;3.40;;;1.67;;
22924;SDS011;11628;51.072;3.712;2022-09-09T16:26:05;5.50;;;1.98;;
22924;SDS011;11628;51.072;3.712;2022-09-09T16:28:30;5.25;;;1.83;;
22924;SDS011;11628;51.072;3.712;2022-09-09T16:30:56;4.07;;;1.60;;
22924;SDS011;11628;51.072;3.712;2022-09-09T16:33:23;4.70;;;1.85;;
22924;SDS011;11628;51.072;3.712;2022-09-09T16:35:51;6.10;;;2.30;;
22924;SDS011;11628;51.072;3.712;2022-09-09T16:38:16;17.25;;;12.60;;
22924;SDS011;11628;51.072;3.712;2022-09-09T16:40:42;11.13;;;6.85;;
22924;SDS011;11628;51.072;3.712;2022-09-09T16:43:08;4.38;;;2.67;;
22924;SDS011;11628;51.072;3.712;2022-09-09T16:45:44;3.97;;;1.60;;
22924;SDS011;11628;51.072;3.712;2022-09-09T16:48:10;6.05;;;2.03;;
22924;SDS011;11628;51.072;3.712;2022-09-09T16:50:36;4.90;;;3.47;;
22924;SDS011;11628;51.072;3.712;2022-09-09T16:53:02;4.15;;;1.92;;
22924;SDS011;11628;51.072;3.712;2022-09-09T16:55:28;5.15;;;2.22;;
22924;SDS011;11628;51.072;3.712;2022-09-09T16:57:54;6.18;;;3.13;;
22924;SDS011;11628;51.072;3.712;2022-09-09T17:00:20;9.38;;;3.13;;
22924;SDS011;11628;51.072;3.712;2022-09-09T17:02:48;8.88;;;4.90;;
22924;SDS011;11628;51.072;3.712;2022-09-09T17:05:14;19.48;;;14.13;;
22924;SDS011;11628;51.072;3.712;2022-09-09T17:07:39;13.50;;;8.05;;
22924;SDS011;11628;51.072;3.712;2022-09-09T17:10:05;22.13;;;5.28;;
22924;SDS011;11628;51.072;3.712;2022-09-09T17:12:32;8.40;;;3.75;;
22924;SDS011;11628;51.072;3.712;2022-09-09T17:14:58;9.52;;;3.75;;
22924;SDS011;11628;51.072;3.712;2022-09-09T17:17:25;9.27;;;3.60;;
22924;SDS011;11628;51.072;3.712;2022-09-09T17:19:51;8.88;;;4.18;;
22924;SDS011;11628;51.072;3.712;2022-09-09T17:22:17;11.93;;;4.95;;
22924;SDS011;11628;51.072;3.712;2022-09-09T17:24:44;9.25;;;4.55;;
22924;SDS011;11628;51.072;3.712;2022-09-09T17:27:11;17.05;;;12.27;;
22924;SDS011;11628;51.072;3.712;2022-09-09T17:29:37;10.32;;;5.18;;
22924;SDS011;11628;51.072;3.712;2022-09-09T17:32:03;16.88;;;13.25;;
22924;SDS011;11628;51.072;3.712;2022-09-09T17:34:30;15.15;;;7.65;;
22924;SDS011;11628;51.072;3.712;2022-09-09T17:36:56;8.40;;;4.20;;
22924;SDS011;11628;51.072;3.712;2022-09-09T17:39:21;9.70;;;4.55;;
22924;SDS011;11628;51.072;3.712;2022-09-09T17:41:47;7.75;;;3.28;;
22924;SDS011;11628;51.072;3.712;2022-09-09T17:44:14;12.10;;;3.40;;
22924;SDS011;11628;51.072;3.712;2022-09-09T17:46:41;7.10;;;3.67;;
22924;SDS011;11628;51.072;3.712;2022-09-09T17:49:11;10.32;;;2.75;;
22924;SDS011;11628;51.072;3.712;2022-09-09T17:51:38;8.43;;;2.40;;
22924;SDS011;11628;51.072;3.712;2022-09-09T17:54:16;8.70;;;2.25;;